Sunday, July 22, 2018, 12:53 PM GMT
Back to Local

CYBG, Bagotville, Que.

Location: , , Canada Lat: 48.333
Local Time: 12:53 PM GMT (12:53 GMT) Lon: -71
Time Zone: GMT Elev: 521 ft

Show me the last for .
Show Decoded

2018-07-22 12:00 METAR CYBG 221200Z 12006KT 25SM BKN240 21/15 A3016 RMK CI6 SLP215 =
2018-07-22 11:00 METAR CYBG 221100Z 10005KT 25SM BKN240 20/14 A3016 RMK CI6 CC ASOCTD SLP212 =
2018-07-22 10:00 METAR CYBG 221000Z 14003KT 25SM SCT240 17/14 A3015 RMK CI3 CC ASOCTD SLP210 =
2018-07-22 09:00 METAR CYBG 220900Z 00000KT 25SM BKN240 17/14 A3013 RMK CI5 SLP205 =
2018-07-22 08:00 METAR CYBG 220800Z 13002KT 25SM FEW100 18/14 A3012 RMK AC1 SLP200 =
2018-07-22 07:00 METAR CYBG 220700Z 12004KT 25SM SKC 20/15 A3012 RMK SLP199 =
2018-07-22 06:00 METAR CYBG 220600Z 12004KT 25SM SKC 21/15 A3012 RMK SLP198 =
2018-07-22 05:00 METAR CYBG 220500Z 00000KT 25SM FEW100 21/16 A3011 RMK AC2 SLP197 =
2018-07-22 04:00 METAR CYBG 220400Z 10007KT 25SM FEW100 22/16 A3011 RMK AC2 SLP196 =
2018-07-22 03:00 METAR CYBG 220300Z 09008KT 25SM FEW100 23/16 A3010 RMK AC2 SLP194 =
2018-07-22 02:00 METAR CYBG 220200Z 10007KT 25SM SCT100 24/16 A3010 RMK AC3 SLP191 =
2018-07-22 01:00 METAR CYBG 220100Z 10007KT 25SM FEW060 SCT240 25/16 A3008 RMK SC1CI2 SLP185 =
2018-07-22 00:00 METAR CYBG 220000Z 10008KT 25SM FEW060 BKN240 28/15 A3006 RMK SC1CI5 SLP179 =
2018-07-21 23:00 METAR CYBG 212300Z 09011KT 25SM FEW060 SCT240 31/13 A3004 RMK SC1CI2 SLP174 =
2018-07-21 22:00 METAR CYBG 212200Z 09012G17KT 25SM FEW060 SCT240 32/13 A3004 RMK SC1CI2 SLP174 =
2018-07-21 21:00 METAR CYBG 212100Z 09014KT 25SM FEW060 SCT240 32/14 A3005 RMK SC1CI3 SLP175 =
2018-07-21 20:00 METAR CYBG 212000Z 08012KT 25SM FEW060 SCT240 33/15 A3006 RMK SC1CI2 SLP179 =
2018-07-21 19:00 METAR CYBG 211900Z 09009KT 25SM FEW060 32/15 A3007 RMK SC1 SLP182 =
2018-07-21 18:00 METAR CYBG 211800Z 07009KT 25SM FEW065 31/15 A3009 RMK SC2 SLP189 =
2018-07-21 17:00 METAR CYBG 211700Z 09008KT 25SM FEW060 31/15 A3010 RMK SC2 SLP192 =
2018-07-21 16:00 METAR CYBG 211600Z 03006KT 25SM FEW060 30/13 A3012 RMK SC2 SLP198 =
2018-07-21 15:00 METAR CYBG 211500Z 09006KT 25SM FEW030 FEW080 28/16 A3013 RMK SC1AC1 SLP202 =
2018-07-21 14:00 METAR CYBG 211400Z 07002KT 25SM FEW030 FEW070 26/16 A3014 RMK SC1AC1 SLP205 =
2018-07-21 13:00 METAR CYBG 211300Z 08003KT 25SM FEW030 FEW070 24/16 A3014 RMK SC1AC1 SLP207 =

Support USWX by starting your Amazon purchase here.